createdAt,value
2022-08-22T00:00:57.893Z,91.24
2022-08-22T00:02:33.144Z,90.97
2022-08-22T00:02:42.589Z,91.68
2022-08-22T00:02:46.055Z,91.62
2022-08-22T00:02:46.732Z,91.33
2022-08-22T00:02:47.029Z,91.50
2022-08-22T00:02:56.790Z,91.88
2022-08-22T00:02:59.456Z,91.05
2022-08-22T00:03:01.345Z,90.87
2022-08-22T00:03:04.349Z,90.91
2022-08-22T00:03:09.132Z,90.74
2022-08-22T00:03:16.333Z,90.90
2022-08-22T00:04:10.232Z,90.97
2022-08-22T00:05:23.545Z,90.74
2022-08-22T00:06:54.614Z,90.70
2022-08-22T00:08:26.853Z,90.66
2022-08-22T00:10:04.509Z,90.90
2022-08-22T00:11:18.344Z,90.58
2022-08-22T00:12:24.926Z,90.71
2022-08-22T00:13:35.343Z,90.69
2022-08-22T00:14:45.363Z,90.90
2022-08-22T00:16:04.238Z,90.85
2022-08-22T00:17:21.651Z,90.49
2022-08-22T00:18:37.732Z,90.52
2022-08-22T00:20:01.041Z,90.31
2022-08-22T00:21:12.783Z,90.26
2022-08-22T00:22:30.143Z,90.70
2022-08-22T00:23:50.659Z,91.06
2022-08-22T00:25:25.644Z,90.70
2022-08-22T00:26:58.462Z,90.66
2022-08-22T00:28:10.215Z,90.80
2022-08-22T00:29:18.165Z,91.03
2022-08-22T00:30:19.999Z,90.63
2022-08-22T00:31:21.867Z,90.80
2022-08-22T00:32:29.682Z,90.77
2022-08-22T00:33:54.014Z,90.66
2022-08-22T00:35:41.736Z,90.49
2022-08-22T00:36:57.822Z,91.01
2022-08-22T00:38:02.674Z,90.75
2022-08-22T00:39:21.974Z,91.02
2022-08-22T00:40:36.270Z,90.65
2022-08-22T00:42:02.208Z,90.65
2022-08-22T00:43:10.063Z,90.81
2022-08-22T00:44:41.794Z,90.68
2022-08-22T00:46:01.897Z,90.55
2022-08-22T00:47:03.450Z,90.60
2022-08-22T00:48:36.096Z,90.73
2022-08-22T00:49:44.860Z,90.61
2022-08-22T00:51:09.496Z,90.77
2022-08-22T00:52:31.342Z,90.91
2022-08-22T00:53:47.994Z,90.69
2022-08-22T00:55:17.453Z,91.19
2022-08-22T00:56:40.669Z,90.89
2022-08-22T00:58:01.040Z,91.16
2022-08-22T00:59:29.657Z,90.85
2022-08-22T01:00:35.283Z,90.92
2022-08-22T01:01:43.883Z,90.93
2022-08-22T01:03:10.322Z,91.16
2022-08-22T01:04:41.434Z,91.43
2022-08-22T01:05:52.315Z,90.83
2022-08-22T01:07:03.913Z,91.03
2022-08-22T01:08:29.897Z,90.56
2022-08-22T01:09:43.542Z,90.98
2022-08-22T01:10:50.997Z,90.38
2022-08-22T01:12:02.823Z,90.46
2022-08-22T01:13:29.084Z,90.80
2022-08-22T01:14:38.738Z,90.72
2022-08-22T01:15:40.360Z,90.69
2022-08-22T01:17:00.831Z,90.86
2022-08-22T01:18:05.417Z,90.78
2022-08-22T01:19:21.017Z,90.86
2022-08-22T01:21:03.286Z,91.11
2022-08-22T01:22:26.394Z,90.72
2022-08-22T01:23:58.671Z,91.25
2022-08-22T01:25:32.030Z,91.30
2022-08-22T01:26:51.968Z,91.24
2022-08-22T01:28:14.612Z,91.11
2022-08-22T01:29:51.143Z,90.95
2022-08-22T01:31:40.646Z,91.31
2022-08-22T01:33:07.878Z,90.89
2022-08-22T01:34:18.185Z,91.26
2022-08-22T01:35:45.649Z,91.01
2022-08-22T01:36:52.826Z,91.05
2022-08-22T01:38:03.536Z,91.00
2022-08-22T01:39:20.280Z,91.11
2022-08-22T01:40:36.184Z,90.98
2022-08-22T01:41:55.205Z,90.92
2022-08-22T01:43:04.481Z,91.06
2022-08-22T01:44:18.067Z,91.66
2022-08-22T01:45:41.782Z,91.33
2022-08-22T01:46:54.487Z,91.46
2022-08-22T01:48:11.149Z,91.60
2022-08-22T01:49:18.766Z,91.23
2022-08-22T01:51:02.124Z,91.24
2022-08-22T01:52:06.365Z,90.95
2022-08-22T01:53:10.708Z,91.03
2022-08-22T01:54:13.523Z,91.16
2022-08-22T01:55:39.266Z,91.21
2022-08-22T01:56:45.038Z,90.88
2022-08-22T01:57:56.050Z,91.07
2022-08-22T01:59:11.348Z,91.06
2022-08-22T02:00:16.649Z,90.85
2022-08-22T02:01:20.899Z,91.27
2022-08-22T02:02:44.271Z,91.17
2022-08-22T02:04:09.768Z,90.99
2022-08-22T02:05:17.483Z,91.07
2022-08-22T02:06:29.340Z,91.47
2022-08-22T02:07:59.043Z,91.67
2022-08-22T02:09:30.803Z,91.03
2022-08-22T02:11:03.611Z,91.02
2022-08-22T02:12:21.362Z,91.26
2022-08-22T02:13:52.930Z,91.30
2022-08-22T02:15:21.920Z,91.23
2022-08-22T02:16:39.272Z,91.33
2022-08-22T02:18:04.765Z,91.20
2022-08-22T02:19:10.789Z,91.41
2022-08-22T02:20:24.421Z,91.40
2022-08-22T02:21:47.921Z,91.26
2022-08-22T02:23:17.714Z,91.28
2022-08-22T02:24:34.991Z,91.69
2022-08-22T02:26:04.244Z,91.54
2022-08-22T02:27:17.784Z,91.60
2022-08-22T02:28:38.046Z,91.48
2022-08-22T02:29:48.113Z,91.94
2022-08-22T02:30:59.946Z,91.76
2022-08-22T02:32:15.791Z,91.62
2022-08-22T02:33:39.781Z,91.66
2022-08-22T02:35:01.853Z,91.71
2022-08-22T02:36:33.373Z,91.46
2022-08-22T02:38:02.952Z,91.55
2022-08-22T02:39:22.063Z,91.75
2022-08-22T02:40:30.749Z,91.90
2022-08-22T02:41:37.519Z,91.71
2022-08-22T02:42:50.330Z,91.55
2022-08-22T02:43:59.742Z,91.62
2022-08-22T02:45:39.057Z,91.43
2022-08-22T02:46:40.733Z,91.39
2022-08-22T02:48:09.530Z,91.33
2022-08-22T02:49:30.821Z,91.28
2022-08-22T02:50:51.255Z,91.40
2022-08-22T02:52:03.394Z,91.16
2022-08-22T02:53:18.115Z,91.29
2022-08-22T02:54:38.056Z,91.19
2022-08-22T02:55:44.229Z,91.30
2022-08-22T02:56:50.723Z,91.25
2022-08-22T02:58:05.566Z,91.11
2022-08-22T02:59:34.980Z,91.25
2022-08-22T03:00:49.432Z,91.22
2022-08-22T03:01:51.366Z,90.86
2022-08-22T03:02:52.935Z,90.65
2022-08-22T03:04:18.039Z,90.67
2022-08-22T03:05:24.120Z,90.75
2022-08-22T03:06:44.120Z,90.97
2022-08-22T03:07:51.114Z,90.73
2022-08-22T03:09:08.674Z,90.62
2022-08-22T03:10:23.544Z,90.54
2022-08-22T03:11:27.857Z,90.74
2022-08-22T03:12:46.052Z,90.75
2022-08-22T03:14:09.158Z,91.00
2022-08-22T03:15:13.691Z,90.96
2022-08-22T03:16:18.642Z,91.03
2022-08-22T03:17:24.350Z,90.99
2022-08-22T03:18:43.600Z,91.12
2022-08-22T03:20:05.672Z,91.04
2022-08-22T03:21:17.511Z,91.05
2022-08-22T03:22:24.299Z,91.05
2022-08-22T03:23:52.331Z,91.20
2022-08-22T03:25:32.264Z,91.07
2022-08-22T03:26:45.145Z,91.28
2022-08-22T03:28:00.281Z,91.03
2022-08-22T03:29:08.188Z,91.02
2022-08-22T03:30:33.302Z,91.01
2022-08-22T03:31:35.490Z,90.91
2022-08-22T03:33:15.351Z,90.71
2022-08-22T03:34:21.587Z,90.71
2022-08-22T03:35:46.309Z,90.79
2022-08-22T03:37:23.206Z,90.71
2022-08-22T03:38:33.594Z,90.98
2022-08-22T03:40:21.812Z,90.79
2022-08-22T03:41:36.037Z,90.94
2022-08-22T03:43:00.411Z,91.15
2022-08-22T03:44:32.268Z,90.94
2022-08-22T03:45:49.657Z,91.09
2022-08-22T03:47:03.590Z,91.23
2022-08-22T03:48:29.445Z,91.08
2022-08-22T03:49:59.451Z,91.18
2022-08-22T03:51:16.298Z,91.20
2022-08-22T03:52:29.760Z,91.09
2022-08-22T03:53:54.466Z,91.17
2022-08-22T03:55:26.053Z,91.19
2022-08-22T03:56:49.163Z,91.62
2022-08-22T03:58:28.225Z,91.55
2022-08-22T03:59:54.629Z,91.55
2022-08-22T04:01:24.671Z,91.84
2022-08-22T04:03:08.033Z,91.56
2022-08-22T04:04:28.697Z,91.61
2022-08-22T04:05:48.598Z,91.51
2022-08-22T04:07:33.432Z,91.45
2022-08-22T04:09:04.755Z,91.19
2022-08-22T04:10:28.868Z,90.99
2022-08-22T04:11:32.202Z,91.43
2022-08-22T04:12:59.489Z,91.40
2022-08-22T04:14:08.778Z,91.39
2022-08-22T04:15:29.088Z,91.56
2022-08-22T04:16:55.065Z,91.55
2022-08-22T04:18:00.994Z,91.45
2022-08-22T04:19:22.830Z,91.49
2022-08-22T04:20:56.695Z,91.16
2022-08-22T04:22:01.140Z,91.53
2022-08-22T04:23:07.496Z,91.66
2022-08-22T04:24:34.013Z,91.56
2022-08-22T04:25:48.615Z,91.60
2022-08-22T04:26:52.995Z,91.69
2022-08-22T04:27:58.564Z,91.69
2022-08-22T04:29:09.340Z,91.64
2022-08-22T04:30:16.678Z,91.65
2022-08-22T04:31:23.118Z,91.50
2022-08-22T04:32:29.623Z,91.75
2022-08-22T04:33:39.755Z,91.93
2022-08-22T04:35:07.055Z,91.81
2022-08-22T04:36:19.941Z,91.72
2022-08-22T04:37:32.272Z,91.62
2022-08-22T04:38:37.225Z,92.17
2022-08-22T04:39:56.627Z,91.80
2022-08-22T04:41:04.693Z,91.50
2022-08-22T04:42:31.593Z,91.67
2022-08-22T04:43:43.590Z,91.51
2022-08-22T04:44:52.633Z,91.49
2022-08-22T04:45:58.911Z,91.42
2022-08-22T04:47:13.440Z,91.65
2022-08-22T04:48:33.837Z,91.77
2022-08-22T04:49:43.771Z,91.51
2022-08-22T04:51:25.807Z,91.42
2022-08-22T04:52:48.660Z,91.31
2022-08-22T04:54:32.245Z,91.35
2022-08-22T04:55:53.177Z,90.97
2022-08-22T04:56:59.909Z,91.22
2022-08-22T04:58:30.240Z,91.20
2022-08-22T04:59:31.961Z,91.38
2022-08-22T05:01:08.997Z,91.34
2022-08-22T05:02:12.148Z,91.38
2022-08-22T05:03:15.579Z,91.13
2022-08-22T05:04:26.393Z,91.13
2022-08-22T05:05:32.684Z,91.29
2022-08-22T05:06:37.241Z,91.25
2022-08-22T05:08:05.090Z,91.28
2022-08-22T05:09:11.874Z,91.44
2022-08-22T05:10:19.899Z,91.01
2022-08-22T05:11:22.758Z,91.15
2022-08-22T05:12:36.948Z,91.06
2022-08-22T05:13:44.233Z,91.04
2022-08-22T05:14:49.122Z,91.03
2022-08-22T05:15:53.562Z,91.23
2022-08-22T05:16:55.193Z,91.29
2022-08-22T05:17:59.081Z,91.37
2022-08-22T05:19:07.791Z,91.02
2022-08-22T05:20:11.172Z,91.28
2022-08-22T05:21:13.978Z,91.23
2022-08-22T05:22:19.590Z,91.24
2022-08-22T05:23:35.161Z,91.39
2022-08-22T05:24:42.485Z,91.30
2022-08-22T05:25:44.541Z,90.98
2022-08-22T05:26:49.321Z,90.74
2022-08-22T05:27:56.420Z,91.00
2022-08-22T05:29:01.558Z,91.17
2022-08-22T05:30:09.739Z,91.35
2022-08-22T05:31:18.921Z,91.05
2022-08-22T05:32:27.554Z,91.06
2022-08-22T05:33:49.259Z,90.74
2022-08-22T05:34:51.374Z,91.06
2022-08-22T05:35:58.065Z,91.11
2022-08-22T05:37:10.530Z,90.51
2022-08-22T05:38:14.300Z,90.35
2022-08-22T05:39:19.608Z,90.29
2022-08-22T05:40:28.102Z,90.47
2022-08-22T05:41:36.781Z,90.16
2022-08-22T05:42:38.421Z,90.10
2022-08-22T05:43:41.884Z,90.20
2022-08-22T05:44:43.571Z,89.85
2022-08-22T05:45:45.406Z,90.15
2022-08-22T05:46:55.949Z,90.30
2022-08-22T05:48:09.042Z,90.28
2022-08-22T05:49:22.470Z,90.23
2022-08-22T05:50:31.116Z,89.89
2022-08-22T05:51:43.535Z,90.00
2022-08-22T05:53:06.243Z,90.08
2022-08-22T05:54:21.822Z,90.20
2022-08-22T05:55:58.587Z,89.87
2022-08-22T05:57:20.697Z,89.98
2022-08-22T05:58:43.447Z,89.92
2022-08-22T05:59:45.079Z,89.91
2022-08-22T06:00:51.988Z,90.04
2022-08-22T06:02:02.738Z,90.34
2022-08-22T06:03:19.920Z,90.11
2022-08-22T06:04:27.720Z,90.08
2022-08-22T06:05:31.219Z,89.70
2022-08-22T06:06:38.123Z,89.53
2022-08-22T06:07:45.058Z,89.95
2022-08-22T06:09:21.224Z,89.62
2022-08-22T06:10:43.098Z,89.52
2022-08-22T06:11:56.276Z,89.52
2022-08-22T06:13:12.203Z,89.56
2022-08-22T06:14:19.372Z,89.64
2022-08-22T06:16:10.086Z,89.69
2022-08-22T06:17:18.336Z,89.80
2022-08-22T06:18:21.827Z,90.12
2022-08-22T06:19:23.922Z,89.92
2022-08-22T06:20:30.098Z,90.14
2022-08-22T06:21:39.279Z,89.77
2022-08-22T06:22:45.410Z,89.59
2022-08-22T06:24:01.661Z,89.83
2022-08-22T06:25:13.972Z,89.79
2022-08-22T06:26:20.243Z,89.72
2022-08-22T06:27:24.238Z,90.11
2022-08-22T06:28:28.164Z,90.11
2022-08-22T06:29:35.494Z,89.66
2022-08-22T06:30:37.402Z,89.60
2022-08-22T06:31:43.725Z,89.78
2022-08-22T06:32:59.051Z,89.67
2022-08-22T06:34:33.138Z,89.46
2022-08-22T06:36:00.783Z,89.08
2022-08-22T06:37:04.652Z,89.23
2022-08-22T06:38:06.327Z,89.25
2022-08-22T06:39:10.871Z,89.32
2022-08-22T06:40:13.593Z,89.03
2022-08-22T06:41:15.237Z,88.95
2022-08-22T06:42:19.290Z,89.16
2022-08-22T06:43:22.558Z,89.30
2022-08-22T06:44:26.497Z,88.89
2022-08-22T06:45:30.362Z,89.13
2022-08-22T06:46:33.397Z,89.09
2022-08-22T06:47:52.164Z,89.29
2022-08-22T06:48:56.188Z,89.15
2022-08-22T06:50:06.278Z,89.66
2022-08-22T06:51:15.740Z,89.75
2022-08-22T06:52:22.484Z,89.88
2022-08-22T06:53:35.353Z,89.44
2022-08-22T06:54:37.987Z,89.47
2022-08-22T06:55:42.229Z,89.69
2022-08-22T06:56:45.946Z,89.73
2022-08-22T06:57:54.888Z,89.86
2022-08-22T06:58:57.804Z,89.31
2022-08-22T06:59:59.743Z,89.17
2022-08-22T07:01:19.055Z,88.89
2022-08-22T07:02:50.511Z,88.73
2022-08-22T07:03:54.269Z,88.85
2022-08-22T07:04:55.903Z,88.90
2022-08-22T07:05:57.599Z,88.65
2022-08-22T07:06:59.958Z,88.41
2022-08-22T07:08:08.734Z,88.17
2022-08-22T07:09:27.820Z,87.80
2022-08-22T07:10:29.424Z,88.14
2022-08-22T07:11:39.057Z,88.26
2022-08-22T07:12:41.112Z,88.47
2022-08-22T07:13:45.697Z,88.65
2022-08-22T07:14:51.559Z,88.03
2022-08-22T07:15:56.254Z,87.99
2022-08-22T07:16:59.217Z,87.42
2022-08-22T07:18:05.158Z,87.40
2022-08-22T07:19:07.047Z,87.29
2022-08-22T07:20:18.775Z,87.70
2022-08-22T07:21:31.254Z,87.70
2022-08-22T07:22:38.169Z,87.53
2022-08-22T07:23:41.075Z,87.45
2022-08-22T07:24:51.728Z,87.61
2022-08-22T07:26:27.075Z,86.49
2022-08-22T07:27:43.919Z,87.24
2022-08-22T07:28:58.383Z,86.38
2022-08-22T07:30:10.240Z,86.92
2022-08-22T07:31:31.826Z,86.82
2022-08-22T07:32:44.499Z,86.46
2022-08-22T07:33:51.399Z,86.14
2022-08-22T07:35:00.455Z,85.72
2022-08-22T07:36:06.987Z,85.90
2022-08-22T07:37:12.521Z,86.31
2022-08-22T07:38:19.065Z,86.25
2022-08-22T07:39:35.912Z,85.56
2022-08-22T07:40:53.931Z,85.65
2022-08-22T07:42:11.393Z,85.82
2022-08-22T07:43:34.478Z,86.02
2022-08-22T07:45:12.345Z,85.81
2022-08-22T07:46:25.635Z,86.76
2022-08-22T07:47:32.717Z,86.55
2022-08-22T07:48:53.499Z,85.45
2022-08-22T07:50:02.875Z,85.03
2022-08-22T07:51:06.880Z,85.81
2022-08-22T07:52:09.876Z,85.77
2022-08-22T07:53:30.650Z,85.94
2022-08-22T07:54:58.043Z,85.36
2022-08-22T07:55:59.878Z,85.60
2022-08-22T07:57:13.312Z,85.44
2022-08-22T07:58:15.488Z,85.74
2022-08-22T07:59:18.834Z,85.51
2022-08-22T08:00:21.041Z,85.35
2022-08-22T08:01:23.420Z,84.29
2022-08-22T08:02:25.129Z,84.55
2022-08-22T08:03:27.981Z,83.67
2022-08-22T08:04:31.529Z,83.86
2022-08-22T08:05:33.825Z,83.81
2022-08-22T08:06:35.530Z,84.55
2022-08-22T08:07:37.192Z,83.76
2022-08-22T08:08:43.638Z,83.95
2022-08-22T08:09:50.057Z,83.14
2022-08-22T08:10:52.657Z,83.31
2022-08-22T08:11:54.340Z,82.58
2022-08-22T08:13:03.754Z,83.31
2022-08-22T08:14:05.855Z,82.97
2022-08-22T08:15:09.346Z,82.28
2022-08-22T08:16:19.726Z,82.57
2022-08-22T08:17:31.414Z,81.96
2022-08-22T08:18:34.538Z,81.76
2022-08-22T08:19:38.319Z,80.97
2022-08-22T08:20:39.944Z,80.87
2022-08-22T08:21:53.650Z,81.25
2022-08-22T08:22:56.024Z,80.77
2022-08-22T08:23:57.801Z,81.54
2022-08-22T08:24:59.514Z,81.36
2022-08-22T08:26:10.591Z,81.12
2022-08-22T08:27:33.491Z,81.47
2022-08-22T08:28:39.982Z,81.92
2022-08-22T08:29:43.462Z,82.08
2022-08-22T08:30:56.033Z,81.51
2022-08-22T08:31:57.648Z,81.11
2022-08-22T08:33:24.405Z,81.61
2022-08-22T08:34:23.514Z,80.92
2022-08-22T08:35:28.092Z,81.66
2022-08-22T08:36:48.304Z,81.93
2022-08-22T08:37:53.035Z,81.58
2022-08-22T08:39:10.195Z,81.93
2022-08-22T08:40:30.549Z,82.50
2022-08-22T08:41:45.403Z,82.05
2022-08-22T08:43:27.631Z,81.18
2022-08-22T08:44:54.584Z,81.22
2022-08-22T08:46:25.574Z,81.79
2022-08-22T08:47:43.113Z,82.26
2022-08-22T08:48:59.663Z,82.20
2022-08-22T08:50:11.723Z,82.47
2022-08-22T08:51:19.980Z,80.99
2022-08-22T08:53:06.762Z,81.27
2022-08-22T08:54:38.083Z,81.43
2022-08-22T08:55:51.336Z,81.34
2022-08-22T08:57:15.564Z,81.59
2022-08-22T08:58:56.634Z,82.15
2022-08-22T08:59:59.978Z,82.57
2022-08-22T09:01:14.022Z,81.23
2022-08-22T09:04:38.059Z,81.40
2022-08-22T09:06:01.389Z,81.88
2022-08-22T09:07:21.636Z,82.30
2022-08-22T09:08:35.812Z,82.51
2022-08-22T09:09:37.491Z,82.50
2022-08-22T09:11:04.500Z,82.43
2022-08-22T09:12:23.829Z,82.99
2022-08-22T09:13:40.717Z,82.66
2022-08-22T09:15:04.319Z,83.02
2022-08-22T09:16:32.220Z,83.59
2022-08-22T09:18:01.206Z,83.14
2022-08-22T09:19:17.220Z,82.91
2022-08-22T09:20:47.650Z,82.97
2022-08-22T09:22:00.754Z,83.38
2022-08-22T09:23:38.953Z,83.35
2022-08-22T09:24:58.893Z,83.67
2022-08-22T09:26:10.006Z,83.51
2022-08-22T09:27:35.923Z,83.60
2022-08-22T09:28:53.636Z,83.68
2022-08-22T09:29:59.956Z,84.15
2022-08-22T09:31:46.490Z,84.35
2022-08-22T09:33:01.068Z,84.94
2022-08-22T09:34:30.199Z,84.86
2022-08-22T09:35:50.455Z,84.59
2022-08-22T09:37:21.348Z,84.57
2022-08-22T09:38:56.606Z,85.34
2022-08-22T09:40:15.326Z,81.35
2022-08-22T09:40:17.597Z,85.53
2022-08-22T09:41:55.303Z,85.46
2022-08-22T09:43:00.297Z,85.48
2022-08-22T09:44:39.485Z,85.43
2022-08-22T09:46:14.457Z,85.70
2022-08-22T09:48:00.255Z,85.71
2022-08-22T09:49:11.217Z,86.12
2022-08-22T09:50:17.064Z,85.83
2022-08-22T09:51:40.443Z,85.99
2022-08-22T09:52:57.305Z,86.45
2022-08-22T09:54:02.411Z,86.52
2022-08-22T09:55:15.993Z,87.06
2022-08-22T09:56:44.393Z,86.13
2022-08-22T09:58:06.930Z,87.08
2022-08-22T09:59:23.420Z,86.19
2022-08-22T10:00:32.133Z,86.28
2022-08-22T10:01:56.341Z,86.23
2022-08-22T10:03:07.561Z,85.94
2022-08-22T10:04:26.098Z,86.79
2022-08-22T10:05:49.646Z,86.35
2022-08-22T10:06:57.880Z,85.71
2022-08-22T10:08:45.866Z,86.66
2022-08-22T10:10:10.674Z,86.69
2022-08-22T10:11:32.364Z,86.92
2022-08-22T10:12:40.055Z,86.93
2022-08-22T10:13:57.536Z,86.21
2022-08-22T10:15:14.701Z,86.62
2022-08-22T10:17:07.945Z,86.28
2022-08-22T10:18:52.819Z,86.77
2022-08-22T10:20:13.801Z,86.14
2022-08-22T10:21:39.489Z,86.58
2022-08-22T10:23:12.125Z,86.47
2022-08-22T10:24:43.746Z,86.83
2022-08-22T10:25:51.741Z,87.02
2022-08-22T10:26:54.838Z,86.15
2022-08-22T10:28:10.447Z,85.97
2022-08-22T10:29:49.460Z,85.52
2022-08-22T10:31:14.193Z,85.47
2022-08-22T10:32:30.939Z,85.50
2022-08-22T10:33:40.386Z,85.03
2022-08-22T10:34:44.433Z,84.57
2022-08-22T10:35:55.053Z,85.38
2022-08-22T10:37:06.299Z,84.55
2022-08-22T10:38:16.560Z,85.16
2022-08-22T10:39:36.411Z,84.86
2022-08-22T10:40:46.668Z,85.32
2022-08-22T10:42:19.887Z,85.69
2022-08-22T10:44:01.331Z,85.05
2022-08-22T10:45:09.212Z,85.13
2022-08-22T10:46:15.802Z,84.73
2022-08-22T10:47:35.899Z,84.91
2022-08-22T10:48:57.250Z,84.79
2022-08-22T10:50:06.526Z,85.41
2022-08-22T10:51:16.515Z,84.96
2022-08-22T10:52:30.422Z,84.71
2022-08-22T10:53:58.618Z,85.12
2022-08-22T10:55:09.665Z,84.29
2022-08-22T10:56:27.350Z,85.19
2022-08-22T10:57:44.199Z,85.61
2022-08-22T10:58:56.112Z,85.70
2022-08-22T11:00:15.724Z,85.89
2022-08-22T11:01:37.793Z,86.29
2022-08-22T11:02:57.999Z,86.15
2022-08-22T11:04:12.209Z,86.60
2022-08-22T11:05:18.193Z,86.68
2022-08-22T11:06:51.525Z,86.70
2022-08-22T11:08:16.795Z,86.11
2022-08-22T11:09:54.294Z,85.73
2022-08-22T11:11:32.734Z,85.85
2022-08-22T11:12:41.763Z,85.76
2022-08-22T11:14:03.081Z,85.70
2022-08-22T11:15:48.547Z,85.11
2022-08-22T11:17:02.886Z,85.36
2022-08-22T11:18:42.571Z,84.23
2022-08-22T11:19:53.016Z,84.42
2022-08-22T11:21:07.270Z,83.85
2022-08-22T11:22:33.769Z,83.60
2022-08-22T11:23:58.079Z,82.90
2022-08-22T11:25:11.442Z,82.24
2022-08-22T11:26:29.925Z,81.40
2022-08-22T11:27:38.356Z,81.70
2022-08-22T11:29:12.292Z,80.61
2022-08-22T11:30:24.043Z,81.06
2022-08-22T11:31:51.471Z,81.14
2022-08-22T11:33:00.167Z,81.38
2022-08-22T11:34:21.366Z,81.98
2022-08-22T11:35:26.031Z,80.44
2022-08-22T11:36:54.639Z,80.48
2022-08-22T11:38:45.345Z,80.62
2022-08-22T11:40:03.962Z,78.97
2022-08-22T11:41:10.166Z,78.34
2022-08-22T11:42:24.194Z,79.18
2022-08-22T11:43:49.931Z,77.96
2022-08-22T11:45:02.339Z,78.26
2022-08-22T11:46:30.104Z,79.11
2022-08-22T11:47:36.209Z,78.36
2022-08-22T11:49:02.635Z,78.09
2022-08-22T11:50:29.591Z,77.41
2022-08-22T11:51:57.512Z,77.88
2022-08-22T11:53:08.657Z,78.47
2022-08-22T11:54:19.942Z,77.17
2022-08-22T11:55:23.001Z,76.18
2022-08-22T11:56:45.116Z,75.60
2022-08-22T11:58:11.471Z,75.85
2022-08-22T11:59:53.571Z,75.51
2022-08-22T12:00:55.233Z,75.09
2022-08-22T12:02:01.732Z,76.51
2022-08-22T12:03:42.691Z,76.03
2022-08-22T12:04:46.758Z,73.88
2022-08-22T12:06:06.248Z,74.21
2022-08-22T12:07:12.037Z,73.31
2022-08-22T12:08:17.129Z,74.16
2022-08-22T12:09:50.873Z,74.15
2022-08-22T12:10:58.474Z,72.54
2022-08-22T12:12:04.687Z,72.25
2022-08-22T12:13:36.471Z,73.27
2022-08-22T12:14:56.111Z,73.52
2022-08-22T12:16:06.704Z,73.87
2022-08-22T12:17:55.848Z,73.41
2022-08-22T12:19:06.008Z,73.93
2022-08-22T12:20:16.354Z,72.72
2022-08-22T12:21:43.288Z,72.85
2022-08-22T12:23:01.297Z,73.00
2022-08-22T12:24:19.362Z,73.18
2022-08-22T12:25:50.149Z,73.66
2022-08-22T12:27:28.565Z,73.66
2022-08-22T12:28:42.987Z,74.00
2022-08-22T12:29:53.787Z,74.74
2022-08-22T12:31:13.503Z,75.40
2022-08-22T12:32:17.923Z,74.67
2022-08-22T12:33:37.470Z,75.79
2022-08-22T12:35:13.726Z,75.12
2022-08-22T12:36:34.695Z,75.65
2022-08-22T12:38:28.074Z,76.02
2022-08-22T12:39:42.942Z,75.04
2022-08-22T12:41:02.610Z,76.25
2022-08-22T12:42:12.684Z,77.52
2022-08-22T12:43:39.943Z,77.38
2022-08-22T12:45:22.509Z,79.52
2022-08-22T12:46:47.495Z,79.50
2022-08-22T12:48:07.808Z,81.01
2022-08-22T12:49:44.982Z,81.93
2022-08-22T12:51:02.846Z,82.56
2022-08-22T12:52:38.737Z,82.50
2022-08-22T12:54:04.511Z,81.67
2022-08-22T12:55:06.705Z,83.32
2022-08-22T12:56:24.831Z,84.12
2022-08-22T12:57:59.576Z,85.77
2022-08-22T12:59:13.448Z,85.20
2022-08-22T13:00:42.021Z,84.76
2022-08-22T13:01:45.008Z,85.14
2022-08-22T13:02:47.272Z,85.72
2022-08-22T13:03:57.369Z,86.91
2022-08-22T13:05:09.213Z,87.31
2022-08-22T13:06:35.261Z,87.10
2022-08-22T13:07:37.884Z,86.08
2022-08-22T13:08:41.616Z,87.12
2022-08-22T13:09:48.453Z,86.82
2022-08-22T13:10:52.510Z,86.86
2022-08-22T13:11:59.980Z,87.18
2022-08-22T13:13:12.002Z,87.37
2022-08-22T13:14:18.976Z,87.46
2022-08-22T13:15:53.507Z,87.77
2022-08-22T13:16:57.675Z,87.98
2022-08-22T13:18:18.845Z,87.88
2022-08-22T13:19:31.925Z,88.43
2022-08-22T13:20:36.867Z,88.31
2022-08-22T13:21:44.243Z,87.91
2022-08-22T13:22:45.918Z,87.25
2022-08-22T13:23:53.241Z,88.15
2022-08-22T13:25:04.880Z,87.60
2022-08-22T13:26:11.150Z,87.30
2022-08-22T13:27:21.120Z,87.79
2022-08-22T13:28:22.743Z,86.66
2022-08-22T13:29:58.717Z,86.57
2022-08-22T13:31:00.951Z,86.98
2022-08-22T13:32:03.749Z,86.81
2022-08-22T13:33:21.347Z,86.57
2022-08-22T13:34:46.066Z,86.93
2022-08-22T13:35:52.213Z,86.34
2022-08-22T13:36:55.853Z,86.49
2022-08-22T13:38:12.084Z,87.20
2022-08-22T13:39:14.713Z,86.01
2022-08-22T13:40:28.984Z,85.18
2022-08-22T13:41:32.372Z,85.72
2022-08-22T13:42:36.155Z,83.99
2022-08-22T13:44:00.323Z,84.95
2022-08-22T13:45:05.821Z,85.02
2022-08-22T13:46:11.106Z,85.94
2022-08-22T13:47:18.247Z,86.63
2022-08-22T13:48:21.444Z,85.27
2022-08-22T13:49:44.050Z,85.73
2022-08-22T13:51:11.244Z,85.12
2022-08-22T13:52:31.330Z,85.16
2022-08-22T13:53:49.988Z,85.23
2022-08-22T13:55:29.491Z,84.53
2022-08-22T13:56:39.409Z,85.51
2022-08-22T13:57:54.621Z,84.94
2022-08-22T13:58:58.805Z,84.92
2022-08-22T14:00:09.021Z,85.65
2022-08-22T14:01:43.261Z,85.70
2022-08-22T14:03:08.245Z,85.81
2022-08-22T14:04:36.062Z,85.63
2022-08-22T14:05:58.824Z,84.34
2022-08-22T14:07:08.846Z,84.78
2022-08-22T14:08:18.452Z,84.83
2022-08-22T14:09:29.355Z,85.95
2022-08-22T14:10:35.274Z,85.30
2022-08-22T14:11:52.029Z,86.93
2022-08-22T14:12:56.336Z,85.71
2022-08-22T14:14:05.476Z,85.67
2022-08-22T14:15:10.140Z,84.29
2022-08-22T14:16:27.702Z,83.59
2022-08-22T14:17:38.503Z,84.65
2022-08-22T14:18:48.443Z,84.37
2022-08-22T14:20:02.815Z,84.99
2022-08-22T14:21:16.384Z,85.63
2022-08-22T14:22:23.104Z,85.17
2022-08-22T14:23:34.470Z,84.73
2022-08-22T14:24:45.957Z,84.73
2022-08-22T14:25:47.769Z,83.62
2022-08-22T14:27:05.195Z,84.57
2022-08-22T14:28:21.126Z,84.26
2022-08-22T14:29:23.566Z,84.40
2022-08-22T14:30:30.648Z,84.47
2022-08-22T14:31:32.291Z,84.27
2022-08-22T14:32:41.745Z,84.79
2022-08-22T14:34:12.203Z,84.74
2022-08-22T14:35:21.678Z,83.85
2022-08-22T14:36:47.964Z,84.10
2022-08-22T14:37:54.304Z,83.86
2022-08-22T14:39:00.113Z,84.72
2022-08-22T14:40:17.953Z,84.83
2022-08-22T14:41:55.620Z,85.49
2022-08-22T14:43:06.794Z,85.38
2022-08-22T14:44:31.551Z,86.04
2022-08-22T14:45:40.701Z,85.17
2022-08-22T14:46:54.027Z,86.08
2022-08-22T14:48:29.474Z,85.49
2022-08-22T14:49:31.670Z,84.71
2022-08-22T14:50:40.490Z,84.84
2022-08-22T14:51:50.712Z,84.05
2022-08-22T14:52:52.767Z,85.52
2022-08-22T14:53:54.384Z,85.40
2022-08-22T14:55:16.877Z,85.12
2022-08-22T14:56:28.495Z,84.78
2022-08-22T14:57:30.798Z,84.48
2022-08-22T14:58:38.195Z,84.55
2022-08-22T14:59:51.863Z,84.53
2022-08-22T15:00:54.007Z,84.83
2022-08-22T15:02:23.154Z,84.43
2022-08-22T15:03:29.034Z,85.32
2022-08-22T15:04:52.801Z,84.92
2022-08-22T15:06:01.604Z,85.06
2022-08-22T15:07:03.421Z,85.61
2022-08-22T15:08:05.585Z,84.75
2022-08-22T15:09:23.600Z,84.51
2022-08-22T15:10:27.858Z,85.16
2022-08-22T15:11:33.334Z,84.61
2022-08-22T15:12:49.630Z,84.45
2022-08-22T15:14:00.349Z,84.75
2022-08-22T15:15:04.780Z,85.44
2022-08-22T15:16:31.297Z,84.80
2022-08-22T15:17:44.332Z,84.81
2022-08-22T15:18:51.754Z,84.82
2022-08-22T15:19:53.861Z,84.89
2022-08-22T15:21:24.266Z,84.90
2022-08-22T15:22:27.550Z,84.64
2022-08-22T15:23:29.525Z,84.61
2022-08-22T15:24:31.644Z,84.49
2022-08-22T15:25:40.971Z,84.16
2022-08-22T15:26:52.423Z,84.70
2022-08-22T15:28:00.383Z,84.91
2022-08-22T15:29:31.186Z,85.02
2022-08-22T15:31:03.713Z,84.71
2022-08-22T15:32:05.666Z,84.22
2022-08-22T15:33:22.504Z,84.13
2022-08-22T15:34:33.382Z,85.08
2022-08-22T15:35:35.076Z,84.11
2022-08-22T15:37:17.828Z,85.00
2022-08-22T15:38:32.761Z,84.55
2022-08-22T15:39:57.066Z,85.23
2022-08-22T15:41:36.358Z,85.16
2022-08-22T15:42:50.064Z,84.60
2022-08-22T15:44:14.766Z,84.26
2022-08-22T15:45:34.736Z,84.98
2022-08-22T15:46:44.246Z,85.04
2022-08-22T15:47:49.297Z,85.14
2022-08-22T15:49:01.108Z,84.85
2022-08-22T15:50:14.686Z,84.74
2022-08-22T15:51:36.756Z,84.00
2022-08-22T15:53:10.823Z,84.35
2022-08-22T15:54:25.227Z,84.67
2022-08-22T15:55:27.395Z,84.56
2022-08-22T15:56:36.788Z,85.22
2022-08-22T15:57:41.803Z,84.82
2022-08-22T15:58:49.541Z,85.42
2022-08-22T15:59:55.082Z,84.66
2022-08-22T16:01:20.496Z,85.47
2022-08-22T16:02:38.920Z,85.09
2022-08-22T16:03:41.806Z,85.34